Time;durP1;ratioP1;P1;durP2;ratioP2;P2;SDS_P1;SDS_P2;PMS_P1;PMS_P2;Temp;Humidity;BMP_temperature;BMP_pressure;BME280_temperature;BME280_humidity;BME280_pressure;Samples;Min_cycle;Max_cycle;Signal;HPM_P1;HPM_P2
2022/06/12 00:00:08;;;;;;;12.82;5.25;;;13.20;99.90;;;;;;4991433;28;20398;-86
2022/06/12 00:02:34;;;;;;;10.67;4.50;;;13.20;99.90;;;;;;5024480;28;20049;-86
2022/06/12 00:05:00;;;;;;;10.93;5.05;;;13.20;99.90;;;;;;4995411;28;20443;-86
2022/06/12 00:07:26;;;;;;;12.35;5.13;;;13.20;99.90;;;;;;4992564;28;20084;-86
2022/06/12 00:09:52;;;;;;;13.32;5.47;;;13.20;99.90;;;;;;5009205;28;20517;-86
2022/06/12 00:12:17;;;;;;;10.95;4.80;;;13.10;99.90;;;;;;5017228;28;20033;-86
2022/06/12 00:14:43;;;;;;;10.27;4.95;;;13.10;99.90;;;;;;5011316;28;20320;-86
2022/06/12 00:17:09;;;;;;;12.15;5.20;;;13.10;99.90;;;;;;5026447;28;20698;-86
2022/06/12 00:19:35;;;;;;;11.52;4.95;;;13.00;99.90;;;;;;5009790;28;20277;-86
2022/06/12 00:22:01;;;;;;;13.55;4.97;;;13.00;99.90;;;;;;5011377;28;20067;-86
2022/06/12 00:24:27;;;;;;;11.43;4.40;;;13.00;99.90;;;;;;4993688;28;20429;-86
2022/06/12 00:26:55;;;;;;;10.95;4.60;;;13.00;99.90;;;;;;5010983;28;20144;-86
2022/06/12 00:29:26;;;;;;;12.73;4.97;;;13.00;99.90;;;;;;5014616;28;20140;-86
2022/06/12 00:31:55;;;;;;;;;;;13.00;99.90;;;;;;5030160;28;20037;-86
2022/06/12 00:34:26;;;;;;;11.05;4.53;;;12.90;99.90;;;;;;5010746;28;20255;-86
2022/06/12 00:36:53;;;;;;;13.38;5.45;;;12.90;99.90;;;;;;5017134;28;20420;-86
2022/06/12 00:39:19;;;;;;;12.05;5.30;;;12.90;99.90;;;;;;5003213;28;20041;-86
2022/06/12 00:41:48;;;;;;;11.98;5.50;;;12.90;99.90;;;;;;5010870;28;20048;-86
2022/06/12 00:44:17;;;;;;;12.35;5.07;;;12.90;99.90;;;;;;4994549;28;20045;-86
2022/06/12 00:46:57;;;;;;;12.02;5.57;;;12.90;99.90;;;;;;5019081;28;20080;-85
2022/06/12 00:49:31;;;;;;;11.45;4.80;;;12.90;99.90;;;;;;5016384;28;20049;-86
2022/06/12 00:52:14;;;;;;;13.45;5.13;;;12.90;99.90;;;;;;5009320;28;20052;-86
2022/06/12 00:54:43;;;;;;;10.55;5.07;;;12.90;99.90;;;;;;5033234;28;20041;-86
2022/06/12 00:57:09;;;;;;;12.63;5.18;;;12.90;99.90;;;;;;5031505;28;20555;-86
2022/06/12 00:59:55;;;;;;;12.13;5.60;;;12.90;99.90;;;;;;5007913;28;20041;-85
2022/06/12 01:02:25;;;;;;;11.52;4.75;;;12.90;99.90;;;;;;5007616;28;20056;-86
2022/06/12 01:07:39;;;;;;;12.07;5.22;;;12.90;99.90;;;;;;5004750;28;20057;-86
2022/06/12 01:10:09;;;;;;;11.05;5.03;;;12.90;99.90;;;;;;5005069;28;20053;-86
2022/06/12 01:12:43;;;;;;;15.02;5.78;;;12.90;99.90;;;;;;5007808;28;20065;-86
2022/06/12 01:15:14;;;;;;;14.50;5.13;;;12.90;99.90;;;;;;5005932;28;20045;-86
2022/06/12 01:17:40;;;;;;;12.57;5.00;;;12.90;99.90;;;;;;5007458;28;20708;-86
2022/06/12 01:20:14;;;;;;;11.32;5.20;;;12.80;99.90;;;;;;5005775;28;20042;-86
2022/06/12 01:23:25;;;;;;;11.30;4.88;;;12.80;99.90;;;;;;5006564;28;20651;-86
2022/06/12 01:26:08;;;;;;;12.00;5.38;;;12.70;99.90;;;;;;4989911;28;20057;-86
2022/06/12 01:28:52;;;;;;;11.98;5.35;;;12.70;99.90;;;;;;5023527;28;20052;-86
2022/06/12 01:31:23;;;;;;;13.80;5.28;;;12.60;99.90;;;;;;5023643;28;20072;-86
2022/06/12 01:34:01;;;;;;;11.63;4.88;;;12.60;99.90;;;;;;5003940;28;20069;-85
2022/06/12 01:36:59;;;;;;;11.02;5.18;;;12.60;99.90;;;;;;5019982;28;20057;-86
2022/06/12 01:39:28;;;;;;;12.43;5.20;;;12.60;99.90;;;;;;5007473;28;20046;-86
2022/06/12 01:42:09;;;;;;;12.30;5.20;;;12.60;99.90;;;;;;5004116;28;20450;-86
2022/06/12 01:44:48;;;;;;;11.48;5.82;;;12.60;99.90;;;;;;5022638;28;20056;-86
2022/06/12 01:47:34;;;;;;;13.38;4.93;;;12.70;99.90;;;;;;4993496;28;20033;-85
2022/06/12 01:50:31;;;;;;;11.38;5.05;;;12.70;99.90;;;;;;5010181;28;20038;-86
2022/06/12 01:53:03;;;;;;;12.25;5.13;;;12.70;99.90;;;;;;4999017;28;20315;-86
2022/06/12 01:55:44;;;;;;;11.13;4.75;;;12.70;99.90;;;;;;5023501;28;20053;-86
2022/06/12 01:58:10;;;;;;;10.90;5.22;;;12.70;99.90;;;;;;5007589;28;20041;-83
2022/06/12 02:00:37;;;;;;;12.60;4.80;;;12.60;99.90;;;;;;5006563;28;20048;-84
2022/06/12 02:03:43;;;;;;;11.05;5.30;;;12.60;99.90;;;;;;5005290;28;20099;-84
2022/06/12 02:06:20;;;;;;;10.57;5.00;;;12.60;99.90;;;;;;4966021;28;20134;-84
2022/06/12 02:08:58;;;;;;;10.50;4.75;;;12.60;99.90;;;;;;4947290;28;20055;-84
2022/06/12 02:14:20;;;;;;;11.13;4.05;;;12.50;99.90;;;;;;4963702;28;20078;-85
2022/06/12 02:16:47;;;;;;;;;;;12.50;99.90;;;;;;4928705;28;20051;-85
2022/06/12 02:19:20;;;;;;;11.52;4.82;;;12.40;99.90;;;;;;4946139;28;19922;-84
2022/06/12 02:21:57;;;;;;;10.02;4.32;;;12.40;99.90;;;;;;4945063;28;20062;-85
2022/06/12 02:24:33;;;;;;;11.70;4.65;;;12.40;99.90;;;;;;4943541;28;20090;-84
2022/06/12 02:27:06;;;;;;;10.60;4.30;;;12.40;99.90;;;;;;4947445;28;20458;-85
2022/06/12 02:29:40;;;;;;;10.73;4.38;;;12.40;99.90;;;;;;4958337;28;20507;-84
2022/06/12 02:32:29;;;;;;;11.30;4.53;;;12.40;99.90;;;;;;4943788;28;20050;-85
2022/06/12 02:35:00;;;;;;;10.43;4.25;;;12.50;99.90;;;;;;4959815;28;20483;-85
2022/06/12 02:37:33;;;;;;;10.98;4.18;;;12.50;99.90;;;;;;4943125;28;20128;-85
2022/06/12 02:40:07;;;;;;;10.13;4.35;;;12.50;99.90;;;;;;4987992;28;20123;-84
2022/06/12 02:42:38;;;;;;;10.32;4.57;;;12.40;99.90;;;;;;4989729;28;20092;-85
2022/06/12 02:45:16;;;;;;;10.65;4.53;;;12.50;99.90;;;;;;4988489;28;20375;-84
2022/06/12 02:47:43;;;;;;;12.07;4.40;;;12.50;99.90;;;;;;5006218;28;20046;-85
2022/06/12 02:50:13;;;;;;;10.52;4.47;;;12.40;99.90;;;;;;4988950;28;20624;-84
2022/06/12 02:53:12;;;;;;;11.35;4.95;;;12.50;99.90;;;;;;5003246;28;20037;-85
2022/06/12 02:55:47;;;;;;;10.32;5.05;;;12.40;99.90;;;;;;5007014;28;20488;-85
2022/06/12 02:58:37;;;;;;;10.75;4.82;;;12.40;99.90;;;;;;5006202;28;20037;-84
2022/06/12 03:01:14;;;;;;;10.38;4.95;;;12.40;99.90;;;;;;5003083;28;20095;-85
2022/06/12 03:03:54;;;;;;;11.00;5.00;;;12.40;99.90;;;;;;5022725;28;20375;-85
2022/06/12 03:06:23;;;;;;;10.93;4.82;;;12.40;99.90;;;;;;5005067;28;20038;-85
2022/06/12 03:08:50;;;;;;;9.40;5.22;;;12.30;99.90;;;;;;5025431;28;20049;-84
2022/06/12 03:11:36;;;;;;;10.50;4.30;;;12.40;99.90;;;;;;5005232;28;20045;-84
2022/06/12 03:14:08;;;;;;;9.98;5.40;;;12.40;99.90;;;;;;5025195;28;20409;-84
2022/06/12 03:16:36;;;;;;;10.68;4.60;;;12.40;99.90;;;;;;5003650;28;20050;-85
2022/06/12 03:19:23;;;;;;;10.45;4.72;;;12.40;99.90;;;;;;5001973;28;20041;-85
2022/06/12 03:22:06;;;;;;;11.10;4.90;;;12.40;99.90;;;;;;5024403;28;20080;-84
2022/06/12 03:24:52;;;;;;;11.02;4.70;;;12.40;99.90;;;;;;4952247;28;1057141;-84
2022/06/12 03:27:24;;;;;;;10.25;4.57;;;12.40;99.90;;;;;;5021177;28;20119;-84
2022/06/12 03:30:03;;;;;;;11.25;5.03;;;12.30;99.90;;;;;;4986582;28;20041;-84
2022/06/12 03:32:55;;;;;;;9.57;4.75;;;12.30;99.90;;;;;;5001440;28;20106;-84
2022/06/12 03:35:48;;;;;;;8.95;4.50;;;12.30;99.90;;;;;;5004356;28;20053;-84
2022/06/12 03:38:30;;;;;;;9.95;4.78;;;12.30;99.90;;;;;;5002166;28;20537;-85
2022/06/12 03:41:07;;;;;;;10.63;4.93;;;12.30;99.90;;;;;;5025848;28;20048;-84
2022/06/12 03:43:51;;;;;;;13.13;4.80;;;12.40;99.90;;;;;;5012786;28;20048;-85
2022/06/12 03:46:30;;;;;;;10.85;3.97;;;12.40;99.90;;;;;;5032094;28;20052;-84
2022/06/12 03:49:40;;;;;;;10.65;4.68;;;12.40;99.90;;;;;;4995389;28;20049;-84
2022/06/12 03:52:12;;;;;;;9.73;4.50;;;12.40;99.90;;;;;;5029296;28;20057;-84
2022/06/12 03:54:46;;;;;;;10.38;4.03;;;12.40;99.90;;;;;;5031539;28;20204;-85
2022/06/12 04:00:17;;;;;;;10.95;4.00;;;12.40;99.90;;;;;;5007700;28;20041;-84
2022/06/12 04:03:03;;;;;;;11.43;4.50;;;12.50;99.90;;;;;;5009703;28;20124;-84
2022/06/12 04:05:47;;;;;;;9.40;3.67;;;12.50;99.90;;;;;;5008800;28;20045;-84
2022/06/12 04:08:21;;;;;;;11.35;4.07;;;12.50;99.90;;;;;;5010269;28;20049;-84
2022/06/12 04:10:48;;;;;;;11.73;4.40;;;12.60;99.90;;;;;;5008071;28;20096;-84
2022/06/12 04:13:16;;;;;;;11.02;4.10;;;12.60;99.90;;;;;;5009400;28;20493;-84
2022/06/12 04:15:47;;;;;;;10.57;3.75;;;12.70;99.90;;;;;;5027909;28;20382;-84
2022/06/12 04:18:13;;;;;;;10.73;4.15;;;12.70;99.90;;;;;;5009178;28;20401;-84
2022/06/12 04:20:45;;;;;;;10.43;3.97;;;12.70;99.90;;;;;;5023945;28;20037;-84
2022/06/12 04:23:22;;;;;;;10.88;4.13;;;12.80;99.90;;;;;;5027868;28;20053;-84
2022/06/12 04:25:55;;;;;;;12.02;4.03;;;12.80;99.90;;;;;;5027161;28;20073;-84
2022/06/12 04:28:37;;;;;;;10.63;3.67;;;12.90;99.90;;;;;;5010868;28;20051;-84
2022/06/12 04:31:14;;;;;;;11.25;4.30;;;12.90;99.90;;;;;;5007999;28;20069;-84
2022/06/12 04:33:55;;;;;;;9.82;4.07;;;12.90;99.90;;;;;;5023708;28;20172;-85
2022/06/12 04:36:22;;;;;;;11.30;4.22;;;13.00;99.90;;;;;;5006661;28;20048;-84
2022/06/12 04:38:48;;;;;;;11.13;3.92;;;13.00;99.90;;;;;;5009236;28;20049;-84
2022/06/12 04:41:22;;;;;;;11.40;3.95;;;13.00;99.90;;;;;;4997354;28;20397;-84
2022/06/12 04:43:48;;;;;;;10.90;4.10;;;13.10;99.90;;;;;;5025308;28;20079;-84
2022/06/12 04:46:13;;;;;;;12.48;4.25;;;13.20;99.90;;;;;;5005748;28;20126;-84
2022/06/12 04:48:42;;;;;;;10.32;4.38;;;13.20;99.90;;;;;;5006501;28;20058;-85
2022/06/12 04:51:10;;;;;;;10.70;4.07;;;13.20;99.90;;;;;;4989383;28;20045;-85
2022/06/12 04:53:37;;;;;;;9.80;3.78;;;13.30;99.90;;;;;;5020007;28;20037;-84
2022/06/12 04:56:04;;;;;;;10.68;4.10;;;13.40;99.90;;;;;;5007103;28;20038;-83
2022/06/12 04:58:29;;;;;;;10.90;3.85;;;13.50;99.90;;;;;;5003662;28;20045;-83
2022/06/12 05:00:56;;;;;;;12.20;4.07;;;13.50;99.90;;;;;;5005010;28;20037;-83
2022/06/12 05:03:22;;;;;;;10.95;4.40;;;13.60;99.90;;;;;;5006217;28;20045;-84
2022/06/12 05:05:48;;;;;;;10.15;4.10;;;13.60;99.90;;;;;;4987174;28;20038;-84
2022/06/12 05:08:14;;;;;;;10.00;4.20;;;13.70;99.90;;;;;;5008891;28;20045;-85
2022/06/12 05:10:40;;;;;;;11.60;4.70;;;13.70;99.90;;;;;;4989599;28;20121;-86
2022/06/12 05:13:06;;;;;;;11.65;4.38;;;13.80;99.90;;;;;;4987310;28;20042;-86
2022/06/12 05:15:32;;;;;;;13.40;4.40;;;13.90;99.90;;;;;;5004555;28;20103;-85
2022/06/12 05:17:57;;;;;;;11.65;3.95;;;14.00;99.90;;;;;;5007572;28;20033;-87
2022/06/12 05:20:28;;;;;;;12.20;4.15;;;14.00;99.90;;;;;;5021826;28;20068;-87
2022/06/12 05:22:54;;;;;;;11.37;4.67;;;14.10;99.90;;;;;;5005018;28;20037;-86
2022/06/12 05:25:20;;;;;;;11.00;4.00;;;14.20;99.90;;;;;;5008584;28;20335;-86
2022/06/12 05:27:48;;;;;;;11.90;4.43;;;14.30;99.90;;;;;;4984589;28;20110;-88
2022/06/12 05:30:17;;;;;;;10.93;4.93;;;14.40;99.90;;;;;;4986168;28;20049;-89
2022/06/12 05:32:44;;;;;;;12.02;4.35;;;14.50;99.90;;;;;;4986327;28;20041;-89
2022/06/12 05:35:11;;;;;;;11.90;4.47;;;14.60;99.90;;;;;;4985940;28;20041;-91
2022/06/12 05:37:38;;;;;;;11.45;4.28;;;14.70;99.90;;;;;;4999069;28;21092;-91
2022/06/12 05:40:07;;;;;;;14.52;4.50;;;14.70;99.90;;;;;;5020970;28;20072;-90
2022/06/12 05:42:32;;;;;;;14.98;4.72;;;14.80;99.90;;;;;;5007123;28;20041;-90
2022/06/12 05:44:58;;;;;;;11.52;4.47;;;14.90;99.90;;;;;;5025464;28;20136;-92
2022/06/12 05:47:24;;;;;;;12.93;4.45;;;15.10;99.90;;;;;;5024414;28;20244;-91
2022/06/12 05:49:49;;;;;;;10.88;4.35;;;15.10;99.90;;;;;;4994653;28;20096;-90
2022/06/12 05:52:16;;;;;;;13.20;4.50;;;15.30;99.90;;;;;;4992118;28;20049;-88
2022/06/12 05:54:42;;;;;;;12.77;4.85;;;15.40;99.90;;;;;;4991607;28;20069;-88
2022/06/12 05:57:08;;;;;;;12.90;4.55;;;15.50;99.90;;;;;;4992054;28;20255;-87
2022/06/12 05:59:34;;;;;;;14.57;4.95;;;15.50;99.90;;;;;;5006726;28;20129;-87
2022/06/12 06:02:00;;;;;;;13.40;5.13;;;15.60;99.90;;;;;;5025164;28;20128;-87
2022/06/12 06:04:26;;;;;;;12.10;4.53;;;15.70;99.90;;;;;;5007511;28;20052;-87
2022/06/12 06:06:55;;;;;;;13.98;4.80;;;15.90;99.90;;;;;;5009803;28;20498;-87
2022/06/12 06:09:21;;;;;;;13.85;4.32;;;15.90;99.90;;;;;;5013210;28;20110;-87
2022/06/12 06:11:48;;;;;;;15.55;4.82;;;15.90;99.90;;;;;;4992164;28;20447;-88
2022/06/12 06:14:14;;;;;;;15.73;4.88;;;15.90;99.90;;;;;;5005235;28;20036;-87
2022/06/12 06:16:41;;;;;;;14.70;4.65;;;16.00;99.90;;;;;;5007292;28;20056;-88
2022/06/12 06:19:07;;;;;;;11.32;4.60;;;16.00;99.90;;;;;;5007114;28;20038;-88
2022/06/12 06:21:33;;;;;;;13.70;4.68;;;16.00;99.90;;;;;;4992697;28;20084;-88
2022/06/12 06:23:59;;;;;;;14.60;4.95;;;16.10;99.90;;;;;;4989060;28;20088;-87
2022/06/12 06:26:25;;;;;;;15.50;5.22;;;16.20;99.90;;;;;;5004837;28;20057;-88
2022/06/12 06:28:51;;;;;;;13.70;4.53;;;16.40;99.90;;;;;;5005810;28;20045;-88
2022/06/12 06:31:18;;;;;;;15.32;5.32;;;16.50;99.90;;;;;;5007046;28;20061;-87
2022/06/12 06:33:44;;;;;;;18.10;5.43;;;16.60;99.90;;;;;;5000693;28;20046;-87
2022/06/12 06:36:11;;;;;;;13.38;4.78;;;16.60;99.90;;;;;;5000293;28;20038;-86
2022/06/12 06:38:38;;;;;;;16.85;5.53;;;16.60;99.90;;;;;;5001776;28;20046;-86
2022/06/12 06:41:04;;;;;;;14.82;4.97;;;16.70;99.90;;;;;;5003679;28;20049;-88
2022/06/12 06:43:30;;;;;;;16.42;5.40;;;16.70;99.90;;;;;;4986392;28;20042;-86
2022/06/12 06:46:14;;;;;;;11.68;5.00;;;16.80;99.90;;;;;;5004560;28;20124;-87
2022/06/12 06:48:40;;;;;;;15.23;5.25;;;16.80;99.90;;;;;;5003206;28;20049;-89
2022/06/12 06:51:06;;;;;;;16.33;5.40;;;16.80;99.90;;;;;;5003122;28;20042;-89
2022/06/12 06:53:32;;;;;;;17.40;5.72;;;16.80;99.90;;;;;;4999202;28;20034;-87
2022/06/12 06:55:58;;;;;;;14.98;5.50;;;16.80;99.90;;;;;;5004631;28;20398;-88
2022/06/12 06:58:25;;;;;;;14.23;5.28;;;16.80;99.90;;;;;;5003870;28;20041;-89
2022/06/12 07:00:52;;;;;;;14.85;5.03;;;17.00;99.90;;;;;;5003313;28;20096;-88
2022/06/12 07:03:19;;;;;;;15.30;5.78;;;17.00;99.90;;;;;;5006213;28;20041;-88
2022/06/12 07:05:48;;;;;;;15.70;5.40;;;17.00;99.90;;;;;;5003532;28;20041;-90
2022/06/12 07:08:14;;;;;;;17.60;5.80;;;17.20;99.90;;;;;;5004621;28;20081;-90
2022/06/12 07:10:41;;;;;;;15.43;5.50;;;17.30;99.90;;;;;;4984924;28;20050;-93
2022/06/12 07:13:07;;;;;;;16.70;6.22;;;17.20;99.90;;;;;;5008688;28;20136;-93
2022/06/12 07:15:34;;;;;;;17.23;5.38;;;17.30;99.90;;;;;;5025857;28;20076;-94
2022/06/12 07:18:04;;;;;;;15.98;6.07;;;17.30;99.90;;;;;;5012104;28;20061;-95
2022/06/12 07:20:35;;;;;;;16.30;5.97;;;17.40;99.90;;;;;;5009408;28;20049;-95
2022/06/12 07:23:03;;;;;;;16.98;5.78;;;17.40;99.90;;;;;;5006717;28;20419;-94
2022/06/12 07:25:30;;;;;;;18.08;5.63;;;17.50;99.90;;;;;;5009997;28;20058;-96
2022/06/12 07:27:56;;;;;;;15.80;5.32;;;17.60;99.90;;;;;;5028747;28;20125;-92
2022/06/12 07:30:23;;;;;;;16.75;5.93;;;17.60;99.90;;;;;;5009169;28;20116;-94
2022/06/12 07:32:50;;;;;;;12.38;5.43;;;17.70;99.90;;;;;;4991866;28;20045;-91
2022/06/12 07:35:16;;;;;;;16.45;5.65;;;17.80;99.90;;;;;;5010023;28;20084;-94
2022/06/12 07:37:42;;;;;;;17.15;5.70;;;17.80;99.90;;;;;;5050673;28;20022;-95
2022/06/12 07:40:15;;;;;;;16.15;6.13;;;17.90;99.90;;;;;;5032700;28;20029;-95
2022/06/12 07:42:41;;;;;;;16.15;5.57;;;17.90;99.90;;;;;;5014976;28;20061;-91
2022/06/12 07:45:07;;;;;;;17.45;6.35;;;18.00;99.90;;;;;;5030531;28;20037;-92
2022/06/12 07:47:33;;;;;;;16.20;6.18;;;18.00;99.90;;;;;;5047454;28;20087;-90
2022/06/12 07:49:59;;;;;;;16.42;6.55;;;18.10;99.90;;;;;;5010700;28;20041;-87
2022/06/12 07:52:26;;;;;;;18.25;5.50;;;18.10;99.90;;;;;;5008856;28;20045;-92
2022/06/12 07:54:53;;;;;;;15.05;5.70;;;18.30;99.90;;;;;;5017406;28;20463;-93
2022/06/12 07:57:19;;;;;;;16.08;6.07;;;18.40;99.90;;;;;;5016236;28;20088;-94
2022/06/12 07:59:44;;;;;;;18.70;6.53;;;18.50;99.90;;;;;;5000659;28;20077;-96
2022/06/12 08:02:11;;;;;;;16.20;6.00;;;18.50;99.90;;;;;;5015431;28;20536;-94
2022/06/12 08:04:38;;;;;;;13.88;5.30;;;18.60;99.90;;;;;;5014257;28;20045;-95
2022/06/12 08:07:04;;;;;;;15.30;5.32;;;18.60;99.90;;;;;;5028616;28;20034;-93
2022/06/12 08:09:29;;;;;;;14.48;5.18;;;18.60;99.90;;;;;;4992103;28;20108;-91
2022/06/12 08:11:55;;;;;;;14.40;5.80;;;18.70;99.90;;;;;;5012141;28;20045;-92
2022/06/12 08:14:22;;;;;;;15.40;5.88;;;18.70;99.90;;;;;;5030135;28;20041;-91
2022/06/12 08:16:48;;;;;;;14.88;5.88;;;18.80;99.90;;;;;;5012275;28;20049;-94
2022/06/12 08:22:00;;;;;;;14.10;5.45;;;19.10;99.90;;;;;;5010777;28;20048;-94
2022/06/12 08:24:27;;;;;;;16.17;5.60;;;19.10;99.90;;;;;;5007524;28;20459;-93
2022/06/12 08:26:52;;;;;;;16.48;5.50;;;19.10;99.90;;;;;;5010088;28;20057;-89
2022/06/12 08:29:18;;;;;;;16.60;5.30;;;19.10;99.90;;;;;;4990684;28;20483;-95
2022/06/12 08:31:50;;;;;;;13.60;4.65;;;19.10;99.90;;;;;;4994686;28;20054;-92
2022/06/12 08:34:25;;;;;;;13.90;4.95;;;19.20;99.90;;;;;;5008116;28;20038;-91
2022/06/12 08:36:52;;;;;;;14.48;4.90;;;19.20;99.90;;;;;;5007012;28;20112;-91
2022/06/12 08:39:18;;;;;;;14.77;4.65;;;19.20;99.90;;;;;;5010916;28;20080;-90
2022/06/12 08:41:54;;;;;;;11.57;4.47;;;19.20;99.90;;;;;;5007313;28;20050;-86
2022/06/12 08:44:48;;;;;;;14.98;5.20;;;19.20;99.90;;;;;;5006121;28;20048;-87
2022/06/12 08:47:34;;;;;;;14.02;5.75;;;19.40;99.90;;;;;;5005120;28;20108;-84
2022/06/12 08:50:13;;;;;;;13.65;4.32;;;19.50;99.90;;;;;;4998929;28;20390;-84
2022/06/12 08:52:54;;;;;;;14.55;4.40;;;19.60;99.90;;;;;;5005217;28;20046;-85
2022/06/12 08:55:26;;;;;;;13.05;4.15;;;19.60;99.90;;;;;;5007266;28;20046;-85
2022/06/12 08:58:12;;;;;;;9.98;3.83;;;19.70;99.90;;;;;;5006536;28;20089;-83
2022/06/12 09:00:39;;;;;;;11.40;4.60;;;19.70;99.90;;;;;;5006450;28;20103;-84
2022/06/12 09:03:08;;;;;;;15.65;4.53;;;19.80;99.90;;;;;;5011463;28;20057;-85
2022/06/12 09:05:49;;;;;;;13.45;4.10;;;19.80;99.90;;;;;;4989447;28;20041;-84
2022/06/12 09:08:27;;;;;;;12.05;3.65;;;19.80;99.90;;;;;;5008630;28;20444;-85
2022/06/12 09:11:01;;;;;;;12.70;4.38;;;19.80;99.90;;;;;;5004186;28;20622;-83
2022/06/12 09:13:37;;;;;;;13.73;4.78;;;19.80;99.90;;;;;;5007188;28;20096;-84
2022/06/12 09:16:22;;;;;;;13.80;4.78;;;19.90;99.90;;;;;;5006680;28;20058;-84
2022/06/12 09:19:14;;;;;;;12.15;4.25;;;19.90;99.90;;;;;;5007812;28;20048;-84
2022/06/12 09:22:09;;;;;;;10.70;4.75;;;19.90;99.90;;;;;;5007530;28;20553;-84
2022/06/12 09:24:58;;;;;;;11.23;4.00;;;19.90;99.90;;;;;;5005894;28;20054;-84
2022/06/12 09:27:33;;;;;;;13.48;4.18;;;20.00;99.90;;;;;;5005298;28;20136;-84
2022/06/12 09:30:13;;;;;;;11.13;3.85;;;20.10;99.90;;;;;;4990501;28;20127;-84
2022/06/12 09:32:55;;;;;;;10.03;3.47;;;20.20;99.90;;;;;;5005679;28;20441;-84
2022/06/12 09:35:36;;;;;;;11.85;3.80;;;20.40;99.90;;;;;;5006840;28;20048;-84
2022/06/12 09:38:19;;;;;;;14.60;3.35;;;20.50;99.90;;;;;;5008528;28;20050;-84
2022/06/12 09:40:59;;;;;;;9.02;3.17;;;20.60;99.90;;;;;;5007127;28;20132;-84
2022/06/12 09:43:33;;;;;;;11.55;3.30;;;20.60;99.90;;;;;;5006693;28;20050;-84
2022/06/12 09:46:20;;;;;;;12.48;3.60;;;20.80;99.90;;;;;;5006207;28;20433;-84
2022/06/12 09:49:05;;;;;;;10.63;3.58;;;20.80;99.90;;;;;;5001785;28;20046;-84
2022/06/12 09:52:01;;;;;;;11.23;3.33;;;20.70;99.90;;;;;;5005259;28;20042;-85
2022/06/12 09:54:55;;;;;;;11.88;3.42;;;20.80;99.90;;;;;;5006245;28;20057;-84
2022/06/12 09:57:30;;;;;;;10.73;3.47;;;20.90;99.90;;;;;;5006508;28;20363;-85
2022/06/12 10:00:08;;;;;;;10.98;3.65;;;20.80;99.90;;;;;;5006882;28;20085;-84
2022/06/12 10:02:46;;;;;;;9.35;3.40;;;20.90;99.90;;;;;;5005046;28;20057;-86
2022/06/12 10:05:31;;;;;;;9.48;2.58;;;21.00;99.90;;;;;;5006658;28;20081;-83
2022/06/12 10:07:59;;;;;;;10.48;2.72;;;21.10;99.90;;;;;;5003182;28;20049;-83
2022/06/12 10:10:43;;;;;;;10.10;2.78;;;21.20;99.90;;;;;;5007282;28;20041;-84
2022/06/12 10:13:14;;;;;;;8.00;2.40;;;21.40;99.90;;;;;;5004643;28;20053;-83
2022/06/12 10:15:52;;;;;;;9.30;2.65;;;21.30;99.90;;;;;;5004888;28;20038;-83
2022/06/12 10:18:34;;;;;;;8.98;2.60;;;21.30;99.90;;;;;;4989165;28;20046;-85
2022/06/12 10:21:14;;;;;;;7.28;3.03;;;21.20;99.90;;;;;;5005388;28;20084;-90
2022/06/12 10:23:40;;;;;;;9.57;2.63;;;21.10;99.90;;;;;;5014339;28;20060;-85
2022/06/12 10:26:21;;;;;;;8.98;3.08;;;20.90;99.90;;;;;;5003267;28;20083;-87
2022/06/12 10:28:59;;;;;;;7.50;2.60;;;20.70;99.90;;;;;;4994976;28;20454;-84
2022/06/12 10:31:25;;;;;;;11.25;3.00;;;20.50;99.90;;;;;;5005130;28;20064;-84
2022/06/12 10:33:57;;;;;;;7.72;2.42;;;20.40;99.90;;;;;;5005891;28;20042;-84
2022/06/12 10:36:31;;;;;;;8.15;2.55;;;20.30;99.90;;;;;;5006086;28;20112;-85
2022/06/12 10:39:13;;;;;;;10.13;2.90;;;20.40;99.90;;;;;;5006921;28;20379;-84
2022/06/12 10:41:49;;;;;;;8.52;2.58;;;20.50;99.90;;;;;;5006240;28;20096;-84
2022/06/12 10:44:29;;;;;;;9.70;2.75;;;20.60;99.90;;;;;;5005098;28;20453;-86
2022/06/12 10:46:55;;;;;;;10.45;2.60;;;20.70;99.90;;;;;;4987715;28;20048;-88
2022/06/12 10:49:23;;;;;;;10.00;2.50;;;20.90;99.90;;;;;;5005271;28;20109;-83
2022/06/12 10:51:50;;;;;;;9.23;2.53;;;20.90;99.90;;;;;;5006201;28;20499;-85
2022/06/12 10:54:22;;;;;;;7.65;2.42;;;20.80;99.90;;;;;;4989089;28;20441;-86
2022/06/12 10:57:12;;;;;;;8.95;2.58;;;20.60;99.90;;;;;;5006790;28;20038;-84
2022/06/12 11:00:08;;;;;;;9.45;3.00;;;20.50;99.90;;;;;;5005090;28;20046;-86
2022/06/12 11:03:02;;;;;;;6.47;2.30;;;20.60;99.90;;;;;;5003578;28;20053;-88
2022/06/12 11:05:49;;;;;;;9.52;2.58;;;20.70;99.90;;;;;;5020593;28;20120;-85
2022/06/12 11:08:45;;;;;;;8.65;2.40;;;20.70;99.90;;;;;;5013565;28;20045;-84
2022/06/12 11:11:30;;;;;;;7.38;2.15;;;20.80;99.90;;;;;;5010040;28;20402;-84
2022/06/12 11:14:33;;;;;;;7.15;2.20;;;20.80;99.90;;;;;;4987921;28;20125;-84
2022/06/12 11:17:36;;;;;;;7.60;2.22;;;20.80;99.90;;;;;;5001867;28;20042;-84
2022/06/12 11:20:14;;;;;;;8.20;2.15;;;20.80;99.90;;;;;;4988559;28;20497;-89
2022/06/12 11:23:07;;;;;;;8.25;2.67;;;20.80;99.90;;;;;;5004268;28;20103;-84
2022/06/12 11:26:06;;;;;;;6.63;2.33;;;20.70;99.90;;;;;;5005657;28;20192;-83
2022/06/12 11:28:47;;;;;;;6.88;2.28;;;20.60;99.90;;;;;;5004093;28;20049;-85
2022/06/12 11:31:37;;;;;;;7.70;2.30;;;20.50;99.90;;;;;;5013046;28;20049;-83
2022/06/12 11:34:33;;;;;;;8.65;2.17;;;20.50;99.90;;;;;;5029373;28;20049;-84
2022/06/12 11:37:17;;;;;;;8.52;2.35;;;20.40;99.90;;;;;;4994949;28;20052;-85
2022/06/12 11:39:57;;;;;;;7.47;2.13;;;20.30;99.90;;;;;;5009696;28;20103;-84
2022/06/12 11:42:39;;;;;;;7.50;2.42;;;20.30;99.90;;;;;;5007898;28;20041;-88
2022/06/12 11:45:04;;;;;;;6.50;2.10;;;20.30;99.90;;;;;;5009585;28;20053;-83
2022/06/12 11:47:51;;;;;;;8.68;2.20;;;20.30;99.90;;;;;;4994851;28;20042;-83
2022/06/12 11:50:29;;;;;;;5.75;1.60;;;20.30;99.90;;;;;;5010256;28;20042;-88
2022/06/12 11:53:23;;;;;;;7.55;2.20;;;20.20;99.90;;;;;;5011985;28;20111;-87
2022/06/12 11:56:04;;;;;;;7.75;2.05;;;20.10;99.90;;;;;;5011456;28;20140;-85
2022/06/12 11:58:46;;;;;;;7.45;2.20;;;20.10;99.90;;;;;;5011524;28;20390;-90
2022/06/12 12:01:20;;;;;;;7.85;2.13;;;20.30;99.90;;;;;;5028837;28;20435;-89
2022/06/12 12:03:48;;;;;;;6.80;2.15;;;20.40;99.90;;;;;;5007723;28;20401;-85
2022/06/12 12:06:33;;;;;;;8.77;2.38;;;20.50;99.90;;;;;;5027438;28;20053;-86
2022/06/12 12:09:11;;;;;;;6.53;2.15;;;20.50;99.90;;;;;;5010175;28;20065;-84
2022/06/12 12:11:44;;;;;;;5.97;2.00;;;20.60;99.90;;;;;;5027392;28;20136;-85
2022/06/12 12:14:15;;;;;;;7.07;2.45;;;20.60;99.90;;;;;;5029127;28;20087;-85
2022/06/12 12:16:45;;;;;;;6.78;2.13;;;20.60;99.90;;;;;;4994657;28;20041;-84
2022/06/12 12:19:29;;;;;;;7.22;2.13;;;20.80;99.90;;;;;;5010655;28;20069;-86
2022/06/12 12:22:04;;;;;;;8.05;2.10;;;20.90;99.90;;;;;;4994358;28;20096;-84
2022/06/12 12:24:40;;;;;;;6.82;2.40;;;21.00;99.90;;;;;;5030307;28;20064;-90
2022/06/12 12:27:15;;;;;;;8.55;2.03;;;21.00;99.90;;;;;;4994304;28;20057;-85
2022/06/12 12:29:42;;;;;;;10.02;2.60;;;20.90;99.90;;;;;;5010537;28;20089;-87
2022/06/12 12:32:11;;;;;;;7.50;2.03;;;20.70;99.90;;;;;;5009957;28;20088;-84
2022/06/12 12:34:39;;;;;;;5.85;2.25;;;20.70;99.90;;;;;;4993413;28;20129;-84
2022/06/12 12:43:06;;;;;;;7.93;2.83;;;20.70;99.90;;;;;;4938088;28;20450;-84
2022/06/12 12:45:38;;;;;;;6.60;1.90;;;20.80;99.90;;;;;;4934905;28;20547;-85
2022/06/12 12:48:07;;;;;;;6.93;2.22;;;20.90;99.90;;;;;;4950120;28;20055;-85
2022/06/12 12:50:53;;;;;;;6.63;2.53;;;20.90;99.90;;;;;;4951189;28;20062;-86
2022/06/12 12:53:20;;;;;;;6.93;1.90;;;20.80;99.90;;;;;;4944435;28;20503;-85
2022/06/12 12:56:09;;;;;;;7.13;2.20;;;20.70;99.90;;;;;;4939970;28;20043;-85
2022/06/12 12:58:41;;;;;;;7.55;2.30;;;20.60;99.90;;;;;;4939206;28;20169;-89
2022/06/12 13:01:19;;;;;;;8.65;2.45;;;20.50;99.90;;;;;;4935744;28;20127;-84
2022/06/12 13:03:52;;;;;;;8.70;2.80;;;20.40;99.90;;;;;;4935945;28;20059;-84
2022/06/12 13:06:34;;;;;;;9.40;2.80;;;20.30;99.90;;;;;;4939835;28;20066;-84
2022/06/12 13:09:23;;;;;;;8.43;2.30;;;20.40;99.90;;;;;;4928894;28;20046;-89
2022/06/12 13:12:20;;;;;;;7.57;2.50;;;20.40;99.90;;;;;;4947294;28;20450;-87
2022/06/12 13:15:04;;;;;;;9.65;2.80;;;20.40;99.90;;;;;;4958440;28;20063;-86
2022/06/12 13:17:56;;;;;;;9.40;2.53;;;20.30;99.90;;;;;;4949004;28;20066;-86
2022/06/12 13:20:57;;;;;;;7.88;2.60;;;20.30;99.90;;;;;;5027836;28;20049;-86
2022/06/12 13:23:26;;;;;;;9.98;2.63;;;20.40;99.90;;;;;;4998403;28;20532;-86
2022/06/12 13:25:54;;;;;;;8.32;2.90;;;20.30;99.90;;;;;;5007061;28;20077;-84
2022/06/12 13:28:23;;;;;;;8.50;2.53;;;20.40;99.90;;;;;;5007423;28;20038;-85
2022/06/12 13:30:50;;;;;;;7.80;2.63;;;20.30;99.90;;;;;;5006750;28;21131;-88
2022/06/12 13:33:28;;;;;;;10.80;2.60;;;20.40;99.90;;;;;;5006695;28;20050;-86